Current Conditions
Partly Cloudy
Conditions



Pressure
30.18 (inHG) - 1022.02 (mb)
Visibility

10.0 (miles) - 16.1 (km)
Temperature
61  °F
Temperature
52  °F
Dewpoint
72  %
 Humidity
Wind Speed
10  mph
9  kts
16  km/h
4.5  m/s
Wind Direction
N
45°
E
90°
135°
S
180°
225°
W
270°
315°
 360°

Due North
Airport Data
KAVP
Wilkes Barre Scranton International Airport
Metar :KAVP 230232Z 36009KT 10SM FEW018 SCT027 OVC039 16/11 A3018 RMK AO2 T01610111
Sun 22nd May 22:32 pm
Raw Metar Info
Raw METAR is the most common format in the world for the transmission of observational weather data. It is highly standardized through the International Civil Aviation Organization (ICAO), which allows it to be understood throughout most of the world.
API Info
Data Provided by
https://www.checkwx.com/weather/KAVP

Aviation Weather providing METAR, TAF, AIRMET, SIGMET and OUTLOOK Weather Reports
© Info
CSS/SVG/PHP scripts were developed by weather34 for use in the weather34 template © 2015-2022

Guide Info provided by Metar-Wikipedia